createdAt,value
2017-09-10T00:05:02.271Z,15.55
2017-09-10T00:07:35.556Z,15.59
2017-09-10T00:25:04.966Z,15.34
2017-09-10T00:39:23.673Z,15.11
2017-09-10T00:41:59.275Z,15.06
2017-09-10T02:01:22.614Z,14.58
2017-09-10T02:14:46.005Z,14.65
2017-09-10T02:35:21.192Z,14.61
2017-09-10T02:37:57.856Z,14.58
2017-09-10T02:43:08.901Z,14.60
2017-09-10T02:48:41.471Z,14.56
2017-09-10T02:51:15.684Z,14.54
2017-09-10T02:53:48.135Z,14.52
2017-09-10T02:56:39.459Z,14.51
2017-09-10T02:59:21.213Z,14.51
2017-09-10T03:02:02.446Z,14.50
2017-09-10T03:04:46.049Z,14.48
2017-09-10T03:07:18.769Z,14.47
2017-09-10T03:10:13.331Z,14.44
2017-09-10T03:12:46.956Z,14.43
2017-09-10T03:15:20.008Z,14.43
2017-09-10T03:18:02.028Z,14.41
2017-09-10T03:23:35.259Z,14.41
2017-09-10T04:19:38.497Z,14.20
2017-09-10T04:50:09.680Z,14.00
2017-09-10T04:52:44.105Z,13.96
2017-09-10T04:55:23.226Z,13.95
2017-09-10T04:57:58.724Z,13.95
2017-09-10T05:00:43.540Z,13.96
2017-09-10T05:03:16.449Z,13.96
2017-09-10T05:05:48.497Z,13.97
2017-09-10T05:08:20.727Z,14.00
2017-09-10T05:10:52.831Z,13.94
2017-09-10T05:13:24.811Z,13.96
2017-09-10T05:16:02.359Z,14.01
2017-09-10T05:21:31.709Z,14.09
2017-09-10T05:24:05.319Z,14.14
2017-09-10T05:26:41.827Z,14.23
2017-09-10T05:29:15.460Z,14.35
2017-09-10T05:32:12.127Z,14.38
2017-09-10T05:35:03.096Z,14.33
2017-09-10T05:40:30.629Z,14.45
2017-09-10T05:43:04.555Z,14.43
2017-09-10T05:45:37.205Z,14.55
2017-09-10T05:48:23.830Z,14.75
2017-09-10T05:50:57.335Z,15.01
2017-09-10T05:53:35.435Z,15.20
2017-09-10T05:56:07.926Z,15.27
2017-09-10T05:58:39.674Z,15.28
2017-09-10T06:01:16.879Z,15.34
2017-09-10T06:03:48.644Z,15.44
2017-09-10T06:06:23.273Z,15.63
2017-09-10T06:08:59.526Z,15.73
2017-09-10T06:11:31.539Z,15.76
2017-09-10T06:14:10.536Z,15.73
2017-09-10T06:16:43.709Z,15.84
2017-09-10T06:19:15.238Z,15.97
2017-09-10T06:21:53.623Z,16.09
2017-09-10T06:24:25.577Z,16.16
2017-09-10T09:18:27.814Z,21.00
2017-09-10T09:20:58.936Z,21.14
2017-09-10T09:23:43.153Z,20.95
2017-09-10T09:26:14.353Z,21.23
2017-09-10T09:31:35.821Z,21.90
2017-09-10T09:37:02.595Z,22.83
2017-09-10T09:39:36.964Z,22.96
2017-09-10T09:42:26.236Z,22.87
2017-09-10T09:45:01.234Z,22.91
2017-09-10T09:47:35.513Z,23.09
2017-09-10T09:50:11.034Z,21.96
2017-09-10T09:52:46.183Z,22.22
2017-09-10T09:55:18.808Z,23.13
2017-09-10T09:57:53.069Z,22.87
2017-09-10T10:00:24.443Z,22.60
2017-09-10T10:02:59.596Z,22.67
2017-09-10T10:05:32.785Z,23.45
2017-09-10T10:08:11.319Z,22.92
2017-09-10T10:10:43.762Z,22.43
2017-09-10T10:13:18.953Z,22.69
2017-09-10T10:15:53.855Z,23.10
2017-09-10T10:18:27.608Z,23.49
2017-09-10T10:21:04.387Z,23.64
2017-09-10T10:23:54.197Z,24.31
2017-09-10T10:26:31.507Z,25.11
2017-09-10T10:29:04.808Z,24.97
2017-09-10T10:31:40.214Z,25.10
2017-09-10T10:34:18.541Z,25.17
2017-09-10T10:36:52.655Z,25.32
2017-09-10T10:39:26.090Z,24.69
2017-09-10T10:42:15.697Z,23.89
2017-09-10T10:44:47.242Z,25.15
2017-09-10T10:47:26.325Z,25.70
2017-09-10T10:50:15.769Z,26.43
2017-09-10T10:52:48.357Z,25.23
2017-09-10T10:55:38.210Z,25.50
2017-09-10T10:58:19.268Z,26.41
2017-09-10T11:03:45.267Z,29.76
2017-09-10T11:06:20.777Z,33.13
2017-09-10T11:08:54.960Z,31.58
2017-09-10T11:17:17.453Z,26.83
2017-09-10T11:19:52.094Z,29.44
2017-09-10T11:23:27.336Z,33.28
2017-09-10T11:26:10.015Z,30.79
2017-09-10T11:28:43.296Z,34.34
2017-09-10T11:31:16.419Z,31.07
2017-09-10T11:33:58.519Z,27.00
2017-09-10T11:37:21.275Z,25.45
2017-09-10T11:39:56.991Z,31.17
2017-09-10T11:42:33.288Z,31.72
2017-09-10T11:45:05.684Z,35.21
2017-09-10T11:53:27.495Z,44.97
2017-09-10T11:55:58.628Z,47.65
2017-09-10T12:01:30.477Z,47.81
2017-09-10T12:04:02.386Z,47.09
2017-09-10T12:06:33.927Z,48.28
2017-09-10T12:12:12.348Z,52.05
2017-09-10T12:20:32.977Z,40.97
2017-09-10T12:23:25.900Z,37.09
2017-09-10T12:25:58.286Z,34.46
2017-09-10T12:43:09.772Z,27.97
2017-09-10T12:45:44.113Z,26.39
2017-09-10T12:48:21.136Z,26.28
2017-09-10T12:51:03.025Z,29.60
2017-09-10T12:53:36.862Z,29.37
2017-09-10T12:59:06.436Z,37.40
2017-09-10T13:01:38.963Z,38.62
2017-09-10T13:04:25.934Z,37.19
2017-09-10T13:15:23.674Z,30.09
2017-09-10T13:17:57.081Z,32.40
2017-09-10T13:20:28.447Z,39.33
2017-09-10T13:28:57.591Z,44.55
2017-09-10T13:31:32.604Z,43.36
2017-09-10T13:34:06.533Z,45.54
2017-09-10T13:36:42.176Z,44.04
2017-09-10T13:39:17.324Z,38.92
2017-09-10T13:41:52.308Z,35.18
2017-09-10T13:44:25.567Z,31.33
2017-09-10T13:46:59.029Z,29.47
2017-09-10T13:49:30.895Z,28.42
2017-09-10T13:52:06.447Z,27.38
2017-09-10T13:54:40.683Z,27.69
2017-09-10T14:00:05.077Z,41.19
2017-09-10T14:02:37.380Z,44.14
2017-09-10T14:07:52.705Z,43.05
2017-09-10T14:10:26.430Z,39.98
2017-09-10T14:13:00.634Z,40.91
2017-09-10T14:15:37.229Z,44.87
2017-09-10T14:18:10.106Z,43.86
2017-09-10T14:20:43.819Z,44.85
2017-09-10T14:23:17.298Z,46.16
2017-09-10T14:25:58.231Z,45.34
2017-09-10T14:28:49.935Z,44.16
2017-09-10T14:31:30.949Z,41.01
2017-09-10T14:36:49.899Z,39.33
2017-09-10T14:42:18.923Z,36.34
2017-09-10T14:47:49.316Z,37.61
2017-09-10T14:50:23.079Z,40.35
2017-09-10T14:52:57.333Z,43.37
2017-09-10T14:55:32.193Z,40.02
2017-09-10T15:00:58.878Z,44.85
2017-09-10T15:03:30.423Z,46.81
2017-09-10T15:06:03.008Z,47.77
2017-09-10T15:14:29.293Z,45.20
2017-09-10T15:28:41.292Z,47.75
2017-09-10T15:31:26.014Z,44.82
2017-09-10T15:34:39.378Z,44.17
2017-09-10T15:37:10.701Z,44.10
2017-09-10T15:42:37.380Z,43.70
2017-09-10T15:45:08.640Z,42.99
2017-09-10T15:54:34.412Z,40.06
2017-09-10T15:57:14.090Z,39.22
2017-09-10T15:59:46.791Z,40.76
2017-09-10T16:02:19.030Z,41.48
2017-09-10T16:05:09.346Z,42.12
2017-09-10T16:07:41.970Z,41.91
2017-09-10T16:10:15.318Z,41.51
2017-09-10T16:15:43.576Z,41.86
2017-09-10T16:18:28.637Z,40.43
2017-09-10T16:21:01.651Z,39.11
2017-09-10T16:23:39.288Z,39.21
2017-09-10T16:26:27.748Z,38.25
2017-09-10T16:29:00.775Z,38.29
2017-09-10T16:31:45.887Z,37.73
2017-09-10T16:34:21.023Z,38.07
2017-09-10T16:36:53.811Z,37.53
2017-09-10T16:39:25.025Z,37.61
2017-09-10T16:41:57.870Z,36.94
2017-09-10T16:44:32.321Z,36.79
2017-09-10T16:47:05.496Z,35.26
2017-09-10T16:49:40.311Z,33.19
2017-09-10T16:52:13.187Z,31.37
2017-09-10T16:54:48.621Z,29.40
2017-09-10T16:57:22.403Z,27.16
2017-09-10T17:00:05.370Z,26.01
2017-09-10T17:02:36.597Z,25.47
2017-09-10T17:05:08.081Z,24.81
2017-09-10T17:07:39.426Z,23.77
2017-09-10T17:10:12.260Z,23.50
2017-09-10T17:12:44.601Z,23.26
2017-09-10T17:15:17.313Z,23.14
2017-09-10T17:17:48.722Z,22.84
2017-09-10T17:20:20.307Z,22.48
2017-09-10T17:22:52.058Z,21.88
2017-09-10T17:25:23.998Z,21.79
2017-09-10T17:27:55.996Z,21.61
2017-09-10T17:30:27.911Z,21.49
2017-09-10T17:33:00.710Z,21.35
2017-09-10T17:38:26.663Z,20.99
2017-09-10T17:40:59.116Z,20.76
2017-09-10T17:43:56.997Z,20.64
2017-09-10T17:46:29.893Z,20.46
2017-09-10T17:49:01.805Z,20.39
2017-09-10T17:51:51.407Z,20.30
2017-09-10T17:54:23.637Z,20.18
2017-09-10T17:56:56.844Z,20.12
2017-09-10T17:59:30.011Z,20.10
2017-09-10T18:02:03.175Z,20.11
2017-09-10T18:04:34.996Z,20.06
2017-09-10T18:07:07.994Z,20.04
2017-09-10T18:09:39.405Z,20.00
2017-09-10T18:12:11.875Z,19.96
2017-09-10T18:14:43.511Z,19.92
2017-09-10T18:17:14.679Z,19.89
2017-09-10T18:19:46.819Z,19.86
2017-09-10T18:22:21.214Z,19.78
2017-09-10T18:24:53.372Z,19.75
2017-09-10T18:27:25.655Z,19.71
2017-09-10T18:30:00.071Z,19.68
2017-09-10T18:32:32.455Z,19.65
2017-09-10T18:35:06.443Z,19.58
2017-09-10T18:43:18.401Z,19.44
2017-09-10T18:45:58.057Z,19.38
2017-09-10T18:48:29.225Z,19.31
2017-09-10T18:51:01.150Z,19.26
2017-09-10T18:53:34.108Z,19.24
2017-09-10T18:56:13.375Z,19.25
2017-09-10T18:58:46.739Z,19.15
2017-09-10T19:07:14.903Z,19.27
2017-09-10T19:09:46.442Z,19.31
2017-09-10T19:12:39.072Z,19.30
2017-09-10T19:15:10.478Z,19.34
2017-09-10T19:20:37.001Z,19.31
2017-09-10T19:23:12.820Z,19.28
2017-09-10T19:25:46.042Z,19.23
2017-09-10T19:28:19.958Z,19.15
2017-09-10T19:30:52.289Z,19.01
2017-09-10T19:33:25.398Z,18.94
2017-09-10T19:35:57.398Z,18.88
2017-09-10T19:38:28.768Z,18.84
2017-09-10T19:41:03.159Z,18.77
2017-09-10T19:43:34.695Z,18.71
2017-09-10T19:46:16.789Z,18.67
2017-09-10T19:48:51.050Z,18.64
2017-09-10T19:51:23.327Z,18.61
2017-09-10T19:53:57.029Z,18.62
2017-09-10T19:56:44.457Z,18.59
2017-09-10T19:59:19.076Z,18.58
2017-09-10T20:01:51.122Z,18.60
2017-09-10T20:04:23.605Z,18.52
2017-09-10T20:06:58.965Z,18.44
2017-09-10T20:09:30.214Z,18.38
2017-09-10T20:12:02.333Z,18.33
2017-09-10T20:14:45.675Z,18.34
2017-09-10T20:17:17.810Z,18.34
2017-09-10T20:19:49.566Z,18.30
2017-09-10T20:22:23.205Z,18.31
2017-09-10T20:24:56.652Z,18.25
2017-09-10T20:27:28.515Z,18.24
2017-09-10T20:30:01.154Z,18.23
2017-09-10T20:32:33.177Z,18.25
2017-09-10T20:35:05.255Z,18.22
2017-09-10T20:37:37.015Z,18.21
2017-09-10T20:40:09.241Z,18.22
2017-09-10T20:42:47.728Z,18.19
2017-09-10T20:45:19.477Z,18.20
2017-09-10T20:47:56.412Z,18.24
2017-09-10T20:50:31.435Z,18.27
2017-09-10T20:53:03.079Z,18.25
2017-09-10T20:55:37.085Z,18.24
2017-09-10T20:58:10.569Z,18.26
2017-09-10T21:00:43.037Z,18.28
2017-09-10T21:03:19.168Z,18.27
2017-09-10T21:05:52.311Z,18.21
2017-09-10T21:08:27.249Z,18.19
2017-09-10T21:11:08.796Z,18.17
2017-09-10T21:13:42.298Z,18.08
2017-09-10T21:16:16.868Z,17.97
2017-09-10T21:19:01.994Z,17.86
2017-09-10T21:21:36.506Z,17.67
2017-09-10T21:27:03.996Z,17.54
2017-09-10T21:29:35.183Z,17.54
2017-09-10T21:38:24.417Z,17.59
2017-09-10T21:40:58.099Z,17.50
2017-09-10T21:43:31.912Z,17.42
2017-09-10T21:46:09.427Z,17.40
2017-09-10T21:48:43.692Z,17.43
2017-09-10T21:54:26.824Z,17.35
2017-09-10T22:02:48.751Z,17.13
2017-09-10T22:08:17.611Z,17.00
2017-09-10T22:10:53.878Z,16.93
2017-09-10T22:13:26.294Z,16.92
2017-09-10T22:15:57.650Z,16.88
2017-09-10T22:18:29.711Z,16.85
2017-09-10T22:21:00.990Z,16.85
2017-09-10T22:23:55.236Z,16.88
2017-09-10T22:26:54.901Z,16.84
2017-09-10T22:29:33.882Z,16.78
2017-09-10T22:32:09.761Z,16.75
2017-09-10T22:55:29.180Z,16.37
2017-09-10T22:58:05.844Z,16.33
2017-09-10T23:03:56.483Z,16.18
2017-09-10T23:09:44.128Z,16.08
2017-09-10T23:12:17.316Z,15.95
2017-09-10T23:14:49.560Z,15.92
2017-09-10T23:17:21.075Z,15.93
2017-09-10T23:19:52.489Z,15.90
2017-09-10T23:22:24.220Z,15.89
2017-09-10T23:24:55.814Z,15.83
2017-09-10T23:27:45.417Z,15.78
2017-09-10T23:30:34.338Z,15.75
2017-09-10T23:33:06.575Z,15.74
2017-09-10T23:35:39.471Z,15.75
2017-09-10T23:41:06.597Z,15.69
2017-09-10T23:43:49.571Z,15.71
2017-09-10T23:46:41.425Z,15.73
2017-09-10T23:49:14.888Z,15.70
2017-09-10T23:51:47.395Z,15.68
2017-09-10T23:54:22.484Z,15.63
2017-09-10T23:56:53.819Z,15.62
2017-09-10T23:59:25.593Z,15.61
